createdAt,value
2022-08-25T00:01:55.055Z,99.90
2022-08-25T00:04:24.112Z,99.90
2022-08-25T00:06:53.588Z,99.90
2022-08-25T00:09:23.231Z,99.90
2022-08-25T00:11:51.438Z,99.90
2022-08-25T00:14:27.046Z,99.90
2022-08-25T00:16:56.209Z,99.90
2022-08-25T00:19:29.289Z,99.90
2022-08-25T00:21:56.888Z,99.90
2022-08-25T00:24:24.895Z,99.90
2022-08-25T00:26:55.195Z,99.90
2022-08-25T00:29:25.974Z,99.90
2022-08-25T00:31:55.051Z,99.90
2022-08-25T00:34:26.372Z,99.90
2022-08-25T00:36:55.051Z,99.90
2022-08-25T00:39:23.784Z,99.90
2022-08-25T00:41:56.651Z,99.90
2022-08-25T00:44:25.261Z,99.90
2022-08-25T00:46:55.842Z,99.90
2022-08-25T00:49:41.432Z,99.90
2022-08-25T00:52:13.132Z,99.90
2022-08-25T00:54:50.207Z,99.90
2022-08-25T00:57:22.099Z,99.90
2022-08-25T01:00:06.855Z,99.90
2022-08-25T01:02:34.072Z,99.90
2022-08-25T01:05:01.383Z,99.90
2022-08-25T01:07:28.542Z,99.90
2022-08-25T01:09:55.881Z,99.90
2022-08-25T01:12:23.189Z,99.90
2022-08-25T01:14:52.668Z,99.90
2022-08-25T01:17:21.904Z,99.90
2022-08-25T01:19:48.924Z,99.90
2022-08-25T01:22:16.796Z,99.90
2022-08-25T01:25:25.578Z,99.90
2022-08-25T01:27:53.840Z,99.90
2022-08-25T01:30:22.448Z,99.90
2022-08-25T01:32:50.419Z,99.90
2022-08-25T01:35:19.118Z,99.90
2022-08-25T01:37:46.504Z,99.90
2022-08-25T01:40:13.868Z,99.90
2022-08-25T01:43:27.057Z,99.90
2022-08-25T01:45:54.175Z,99.90
2022-08-25T01:48:21.212Z,99.90
2022-08-25T01:50:48.312Z,99.90
2022-08-25T01:53:30.250Z,99.90
2022-08-25T01:56:09.601Z,99.90
2022-08-25T01:58:38.938Z,99.90
2022-08-25T02:01:09.258Z,99.90
2022-08-25T02:03:42.405Z,99.90
2022-08-25T02:06:13.020Z,99.90
2022-08-25T02:08:40.799Z,99.90
2022-08-25T02:11:12.710Z,99.90
2022-08-25T02:13:41.278Z,99.90
2022-08-25T02:16:10.959Z,99.90
2022-08-25T02:18:38.164Z,99.90
2022-08-25T02:21:05.504Z,99.90
2022-08-25T02:23:32.721Z,99.90
2022-08-25T02:25:59.764Z,99.90
2022-08-25T02:28:27.041Z,99.90
2022-08-25T02:30:54.576Z,99.90
2022-08-25T02:33:28.376Z,99.90
2022-08-25T02:35:59.314Z,99.90
2022-08-25T02:38:28.208Z,99.90
2022-08-25T02:40:59.380Z,99.90
2022-08-25T02:43:28.725Z,99.90
2022-08-25T02:45:56.575Z,99.90
2022-08-25T02:48:24.686Z,99.90
2022-08-25T02:50:53.100Z,99.90
2022-08-25T02:53:20.911Z,99.90
2022-08-25T02:55:48.004Z,99.90
2022-08-25T02:58:15.831Z,99.90
2022-08-25T03:00:43.244Z,99.90
2022-08-25T03:03:11.985Z,99.90
2022-08-25T03:05:39.956Z,99.90
2022-08-25T03:08:08.139Z,99.90
2022-08-25T03:10:35.595Z,99.90
2022-08-25T03:13:08.564Z,99.90
2022-08-25T03:15:37.978Z,99.90
2022-08-25T03:18:06.540Z,99.90
2022-08-25T03:20:36.120Z,99.90
2022-08-25T03:23:05.433Z,99.90
2022-08-25T03:25:51.864Z,99.90
2022-08-25T03:28:19.319Z,99.90
2022-08-25T03:30:47.793Z,99.90
2022-08-25T03:33:23.280Z,99.90
2022-08-25T03:35:50.339Z,99.90
2022-08-25T03:38:17.590Z,99.90
2022-08-25T03:40:44.919Z,99.90
2022-08-25T03:43:11.886Z,99.90
2022-08-25T03:45:43.959Z,99.90
2022-08-25T03:48:11.612Z,99.90
2022-08-25T03:50:51.322Z,99.90
2022-08-25T03:53:20.397Z,99.90
2022-08-25T03:55:48.411Z,99.90
2022-08-25T03:58:15.508Z,99.90
2022-08-25T04:00:42.567Z,99.90
2022-08-25T04:03:09.863Z,99.90
2022-08-25T04:05:36.859Z,99.90
2022-08-25T04:08:04.744Z,99.90
2022-08-25T04:10:32.096Z,99.90
2022-08-25T04:12:59.983Z,99.90
2022-08-25T04:15:28.093Z,99.90
2022-08-25T04:17:59.154Z,99.90
2022-08-25T04:20:26.719Z,99.90
2022-08-25T04:22:53.797Z,99.90
2022-08-25T04:25:20.918Z,99.90
2022-08-25T04:27:48.163Z,99.90
2022-08-25T04:30:15.529Z,99.90
2022-08-25T04:32:42.592Z,99.90
2022-08-25T04:35:10.566Z,99.90
2022-08-25T04:37:37.514Z,99.90
2022-08-25T04:40:05.657Z,99.90
2022-08-25T04:42:32.609Z,99.90
2022-08-25T04:45:01.877Z,99.90
2022-08-25T04:47:28.906Z,99.90
2022-08-25T04:49:56.364Z,99.90
2022-08-25T04:52:23.526Z,99.90
2022-08-25T04:54:50.670Z,99.90
2022-08-25T04:57:17.979Z,99.90
2022-08-25T04:59:45.024Z,99.90
2022-08-25T05:02:12.046Z,99.90
2022-08-25T05:04:39.678Z,99.90
2022-08-25T05:07:06.784Z,99.90
2022-08-25T05:09:34.652Z,99.90
2022-08-25T05:12:03.075Z,99.90
2022-08-25T05:14:30.734Z,99.90
2022-08-25T05:16:58.183Z,99.90
2022-08-25T05:19:26.510Z,99.90
2022-08-25T05:21:54.080Z,99.90
2022-08-25T05:24:22.291Z,99.90
2022-08-25T05:26:50.127Z,99.90
2022-08-25T05:29:17.773Z,99.90
2022-08-25T05:31:50.031Z,99.90
2022-08-25T05:34:19.563Z,99.90
2022-08-25T05:36:48.635Z,99.90
2022-08-25T05:39:16.273Z,99.90
2022-08-25T05:41:43.372Z,99.90
2022-08-25T05:44:10.442Z,99.90
2022-08-25T05:46:38.598Z,99.90
2022-08-25T05:49:05.750Z,99.90
2022-08-25T05:51:33.290Z,99.90
2022-08-25T05:54:00.944Z,99.90
2022-08-25T05:56:28.193Z,99.90
2022-08-25T05:58:55.733Z,99.90
2022-08-25T06:01:46.852Z,99.90
2022-08-25T06:04:22.614Z,99.90
2022-08-25T06:06:53.443Z,99.90
2022-08-25T06:09:21.165Z,99.90
2022-08-25T06:11:54.049Z,99.90
2022-08-25T06:14:22.675Z,99.90
2022-08-25T06:16:51.692Z,99.90
2022-08-25T06:19:19.040Z,99.90
2022-08-25T06:21:46.170Z,99.90
2022-08-25T06:24:15.577Z,99.90
2022-08-25T06:26:44.443Z,99.90
2022-08-25T06:29:14.077Z,99.90
2022-08-25T06:31:42.643Z,99.90
2022-08-25T06:34:11.767Z,99.90
2022-08-25T06:36:40.043Z,99.90
2022-08-25T06:39:07.258Z,99.90
2022-08-25T06:41:37.341Z,99.90
2022-08-25T06:44:05.822Z,99.90
2022-08-25T06:46:36.448Z,99.90
2022-08-25T06:49:06.935Z,99.90
2022-08-25T06:51:36.233Z,99.90
2022-08-25T06:54:04.470Z,99.90
2022-08-25T06:56:31.785Z,99.90
2022-08-25T06:59:00.368Z,99.90
2022-08-25T07:01:27.642Z,99.90
2022-08-25T07:03:59.862Z,99.90
2022-08-25T07:06:28.419Z,99.90
2022-08-25T07:08:55.700Z,99.90
2022-08-25T07:11:22.802Z,99.90
2022-08-25T07:13:51.547Z,99.90
2022-08-25T07:16:20.611Z,99.90
2022-08-25T07:18:48.307Z,99.90
2022-08-25T07:21:15.892Z,99.90
2022-08-25T07:23:43.357Z,99.90
2022-08-25T07:29:16.773Z,99.90
2022-08-25T07:31:45.198Z,99.90
2022-08-25T07:34:31.590Z,99.90
2022-08-25T07:36:59.885Z,99.90
2022-08-25T07:39:29.089Z,99.90
2022-08-25T07:41:56.809Z,99.90
2022-08-25T07:44:25.346Z,99.90
2022-08-25T07:46:56.170Z,99.90
2022-08-25T07:49:25.929Z,99.90
2022-08-25T07:52:04.730Z,99.90
2022-08-25T07:54:35.611Z,99.90
2022-08-25T07:57:06.917Z,99.90
2022-08-25T07:59:39.283Z,99.90
2022-08-25T08:02:18.270Z,99.90
2022-08-25T08:04:49.600Z,99.90
2022-08-25T08:07:23.299Z,99.90
2022-08-25T08:10:00.421Z,99.90
2022-08-25T08:12:39.270Z,99.90
2022-08-25T08:15:10.184Z,99.90
2022-08-25T08:17:38.735Z,99.90
2022-08-25T08:20:09.056Z,99.90
2022-08-25T08:22:39.103Z,99.90
2022-08-25T08:25:10.535Z,99.90
2022-08-25T08:27:39.601Z,99.90
2022-08-25T08:30:07.374Z,99.90
2022-08-25T08:32:59.858Z,99.90
2022-08-25T08:35:21.503Z,99.90
2022-08-25T08:37:48.927Z,99.90
2022-08-25T08:40:21.919Z,99.90
2022-08-25T08:43:04.206Z,99.90
2022-08-25T08:45:44.003Z,99.90
2022-08-25T08:49:05.624Z,99.90
2022-08-25T08:51:39.284Z,99.90
2022-08-25T08:54:18.682Z,99.90
2022-08-25T08:56:50.390Z,99.90
2022-08-25T08:59:29.979Z,99.90
2022-08-25T09:02:04.082Z,99.90
2022-08-25T09:05:04.203Z,99.90
2022-08-25T09:07:42.275Z,99.90
2022-08-25T09:10:10.550Z,99.90
2022-08-25T09:12:47.493Z,99.90
2022-08-25T09:15:54.822Z,99.90
2022-08-25T09:19:21.259Z,99.90
2022-08-25T09:22:33.387Z,99.90
2022-08-25T09:25:10.405Z,99.90
2022-08-25T09:27:44.122Z,99.90
2022-08-25T09:30:17.240Z,99.90
2022-08-25T09:33:03.956Z,99.90
2022-08-25T09:35:35.200Z,99.90
2022-08-25T09:38:12.605Z,99.90
2022-08-25T09:40:45.312Z,99.90
2022-08-25T09:43:24.626Z,99.90
2022-08-25T09:46:04.071Z,99.90
2022-08-25T09:48:44.767Z,99.90
2022-08-25T09:51:25.781Z,99.90
2022-08-25T09:53:58.613Z,99.90
2022-08-25T09:56:33.614Z,99.90
2022-08-25T09:59:19.083Z,99.90
2022-08-25T10:01:56.225Z,99.90
2022-08-25T10:04:40.025Z,99.90
2022-08-25T10:07:29.319Z,99.90
2022-08-25T10:10:00.282Z,99.90
2022-08-25T10:12:42.989Z,99.90
2022-08-25T10:15:33.765Z,99.90
2022-08-25T10:18:25.900Z,99.90
2022-08-25T10:21:29.504Z,99.90
2022-08-25T10:23:56.611Z,99.90
2022-08-25T10:26:34.795Z,99.90
2022-08-25T10:29:17.761Z,99.90
2022-08-25T10:32:30.008Z,99.90
2022-08-25T10:35:03.182Z,99.90
2022-08-25T10:37:33.262Z,99.90
2022-08-25T10:40:38.981Z,99.90
2022-08-25T10:43:19.211Z,99.90
2022-08-25T10:46:00.514Z,99.90
2022-08-25T10:48:47.958Z,99.90
2022-08-25T10:51:46.911Z,99.90
2022-08-25T10:54:55.729Z,99.90
2022-08-25T10:57:41.382Z,99.90
2022-08-25T11:00:15.209Z,99.90
2022-08-25T11:03:01.499Z,99.90
2022-08-25T11:05:40.647Z,99.90
2022-08-25T11:08:16.577Z,99.90
2022-08-25T11:10:53.087Z,99.90
2022-08-25T11:13:37.850Z,99.90
2022-08-25T11:16:21.468Z,99.90
2022-08-25T11:18:56.149Z,99.90
2022-08-25T11:21:54.156Z,99.90
2022-08-25T11:24:30.281Z,99.90
2022-08-25T11:26:57.705Z,99.90
2022-08-25T11:29:31.309Z,99.90
2022-08-25T11:32:01.228Z,99.90
2022-08-25T11:34:32.757Z,99.90
2022-08-25T11:37:11.205Z,99.90
2022-08-25T11:40:18.868Z,99.90
2022-08-25T11:42:45.886Z,99.90
2022-08-25T11:45:34.725Z,99.90
2022-08-25T11:48:22.173Z,99.90
2022-08-25T11:51:27.542Z,99.90
2022-08-25T11:54:18.133Z,97.00
2022-08-25T11:56:57.562Z,94.50
2022-08-25T11:59:53.201Z,92.50
2022-08-25T12:02:42.706Z,85.30
2022-08-25T12:05:22.167Z,82.00
2022-08-25T12:08:20.202Z,77.40
2022-08-25T12:10:52.804Z,74.30
2022-08-25T12:13:40.801Z,72.40
2022-08-25T12:16:29.340Z,68.70
2022-08-25T12:19:28.616Z,67.70
2022-08-25T12:22:15.701Z,62.30
2022-08-25T12:24:47.208Z,61.40
2022-08-25T12:27:25.242Z,62.80
2022-08-25T12:30:05.693Z,61.40
2022-08-25T12:33:01.931Z,59.30
2022-08-25T12:35:53.510Z,57.50
2022-08-25T12:38:39.873Z,55.60
2022-08-25T12:41:19.280Z,55.30
2022-08-25T12:43:51.985Z,55.60
2022-08-25T12:46:23.041Z,55.60
2022-08-25T12:49:02.040Z,54.30
2022-08-25T12:51:48.704Z,52.70
2022-08-25T12:54:41.744Z,53.60
2022-08-25T12:57:29.931Z,54.00
2022-08-25T13:00:01.798Z,54.70
2022-08-25T13:03:06.677Z,54.10
2022-08-25T13:05:55.294Z,53.60
2022-08-25T13:08:51.628Z,53.00
2022-08-25T13:11:43.660Z,52.80
2022-08-25T13:14:27.035Z,52.10
2022-08-25T13:16:58.005Z,52.50
2022-08-25T13:19:27.440Z,52.10
2022-08-25T13:22:12.763Z,51.90
2022-08-25T13:24:47.495Z,52.20
2022-08-25T13:27:28.633Z,51.10
2022-08-25T13:29:59.232Z,51.10
2022-08-25T13:32:35.738Z,50.90
2022-08-25T13:35:19.777Z,51.20
2022-08-25T13:37:48.283Z,49.90
2022-08-25T13:40:31.288Z,51.00
2022-08-25T13:43:04.408Z,52.10
2022-08-25T13:45:41.206Z,51.20
2022-08-25T13:48:22.957Z,51.10
2022-08-25T13:51:00.554Z,51.20
2022-08-25T13:53:30.582Z,50.40
2022-08-25T13:56:00.922Z,50.10
2022-08-25T13:58:44.771Z,49.50
2022-08-25T14:01:46.315Z,50.10
2022-08-25T14:04:31.957Z,49.60
2022-08-25T14:07:34.133Z,49.60
2022-08-25T14:10:11.972Z,49.00
2022-08-25T14:12:47.156Z,49.20
2022-08-25T14:15:16.869Z,49.30
2022-08-25T14:18:00.855Z,49.40
2022-08-25T14:20:31.033Z,49.70
2022-08-25T14:23:12.933Z,49.90
2022-08-25T14:25:46.946Z,50.40
2022-08-25T14:28:19.730Z,50.80
2022-08-25T14:30:52.285Z,51.30
2022-08-25T14:33:23.888Z,50.80
2022-08-25T14:35:53.706Z,51.50
2022-08-25T14:38:22.378Z,51.40
2022-08-25T14:40:50.183Z,50.80
2022-08-25T14:43:17.555Z,51.20
2022-08-25T14:45:48.114Z,50.90
2022-08-25T14:48:28.425Z,51.30
2022-08-25T14:50:58.606Z,50.30
2022-08-25T14:53:29.657Z,50.80
2022-08-25T14:55:59.495Z,51.00
2022-08-25T14:58:34.112Z,50.90
2022-08-25T15:01:02.563Z,50.80
2022-08-25T15:03:38.502Z,50.80
2022-08-25T15:06:06.757Z,50.90
2022-08-25T15:08:52.141Z,50.80
2022-08-25T15:11:20.880Z,50.90
2022-08-25T15:13:49.802Z,50.60
2022-08-25T15:16:36.416Z,50.50
2022-08-25T15:19:07.115Z,49.90
2022-08-25T15:21:37.451Z,49.90
2022-08-25T15:24:09.435Z,50.20
2022-08-25T15:26:57.883Z,50.10
2022-08-25T15:29:28.050Z,50.20
2022-08-25T15:31:55.817Z,50.00
2022-08-25T15:34:22.801Z,50.20
2022-08-25T15:36:52.366Z,50.30
2022-08-25T15:39:21.734Z,50.20
2022-08-25T15:41:52.372Z,50.50
2022-08-25T15:44:19.980Z,50.30
2022-08-25T15:46:50.309Z,50.70
2022-08-25T15:49:23.227Z,51.00
2022-08-25T15:51:52.031Z,51.30
2022-08-25T15:54:20.393Z,51.60
2022-08-25T15:56:47.852Z,51.50
2022-08-25T15:59:15.471Z,51.60
2022-08-25T16:01:44.381Z,52.20
2022-08-25T16:04:14.489Z,52.30
2022-08-25T16:06:41.445Z,53.10
2022-08-25T16:09:08.590Z,53.80
2022-08-25T16:11:38.497Z,55.30
2022-08-25T16:14:06.491Z,55.80
2022-08-25T16:16:33.793Z,56.30
2022-08-25T16:19:01.778Z,56.80
2022-08-25T16:21:35.539Z,57.50
2022-08-25T16:24:07.486Z,58.40
2022-08-25T16:26:36.620Z,59.10
2022-08-25T16:29:06.398Z,59.50
2022-08-25T16:31:33.859Z,60.00
2022-08-25T16:34:01.622Z,60.80
2022-08-25T16:36:29.183Z,61.60
2022-08-25T16:38:57.730Z,62.30
2022-08-25T16:41:33.473Z,62.70
2022-08-25T16:44:02.069Z,63.10
2022-08-25T16:46:30.721Z,63.30
2022-08-25T16:49:02.449Z,63.70
2022-08-25T16:51:29.927Z,63.50
2022-08-25T16:54:21.963Z,64.20
2022-08-25T16:56:53.745Z,64.70
2022-08-25T16:59:23.411Z,65.30
2022-08-25T17:01:51.745Z,65.70
2022-08-25T17:04:19.851Z,66.20
2022-08-25T17:06:52.151Z,66.40
2022-08-25T17:09:23.949Z,66.90
2022-08-25T17:11:56.773Z,67.70
2022-08-25T17:14:24.010Z,68.20
2022-08-25T17:16:54.656Z,68.50
2022-08-25T17:19:23.671Z,68.40
2022-08-25T17:21:52.247Z,68.40
2022-08-25T17:24:19.234Z,68.80
2022-08-25T17:26:50.087Z,68.80
2022-08-25T17:29:17.843Z,69.00
2022-08-25T17:31:48.361Z,69.20
2022-08-25T17:34:16.758Z,69.40
2022-08-25T17:36:47.318Z,69.40
2022-08-25T17:39:14.965Z,69.60
2022-08-25T17:41:43.989Z,70.10
2022-08-25T17:44:12.054Z,70.40
2022-08-25T17:46:44.131Z,70.70
2022-08-25T17:49:15.625Z,71.50
2022-08-25T17:51:42.858Z,72.10
2022-08-25T17:54:10.155Z,72.70
2022-08-25T17:56:38.217Z,73.40
2022-08-25T17:59:06.060Z,73.80
2022-08-25T18:01:40.212Z,75.00
2022-08-25T18:04:15.632Z,76.10
2022-08-25T18:06:45.401Z,76.20
2022-08-25T18:09:12.853Z,77.10
2022-08-25T18:11:39.758Z,78.00
2022-08-25T18:14:06.658Z,78.70
2022-08-25T18:16:37.671Z,80.00
2022-08-25T18:19:04.730Z,80.80
2022-08-25T18:21:36.913Z,81.40
2022-08-25T18:24:04.522Z,82.10
2022-08-25T18:26:33.093Z,83.00
2022-08-25T18:29:01.355Z,84.00
2022-08-25T18:31:29.788Z,84.50
2022-08-25T18:33:58.519Z,84.40
2022-08-25T18:36:31.407Z,85.00
2022-08-25T18:39:16.978Z,84.50
2022-08-25T18:41:45.115Z,85.10
2022-08-25T18:44:12.256Z,85.80
2022-08-25T18:46:42.749Z,86.70
2022-08-25T18:49:10.865Z,87.60
2022-08-25T18:51:43.195Z,88.30
2022-08-25T18:54:23.386Z,88.70
2022-08-25T18:56:52.411Z,89.30
2022-08-25T18:59:20.149Z,89.80
2022-08-25T19:01:51.471Z,90.40
2022-08-25T19:04:18.498Z,90.80
2022-08-25T19:06:45.452Z,91.10
2022-08-25T19:09:15.890Z,91.30
2022-08-25T19:11:43.343Z,91.50
2022-08-25T19:14:12.691Z,91.60
2022-08-25T19:16:41.419Z,91.60
2022-08-25T19:19:13.638Z,91.70
2022-08-25T19:21:42.134Z,91.60
2022-08-25T19:24:10.612Z,91.20
2022-08-25T19:26:38.562Z,91.00
2022-08-25T19:29:11.187Z,90.70
2022-08-25T19:31:40.859Z,90.60
2022-08-25T19:34:10.180Z,90.60
2022-08-25T19:36:37.326Z,90.50
2022-08-25T19:39:08.659Z,90.60
2022-08-25T19:41:36.450Z,90.50
2022-08-25T19:44:05.141Z,90.50
2022-08-25T19:46:37.371Z,90.40
2022-08-25T19:49:12.027Z,90.40
2022-08-25T19:51:44.312Z,90.30
2022-08-25T19:54:16.306Z,90.40
2022-08-25T19:56:54.355Z,90.50
2022-08-25T19:59:36.727Z,90.60
2022-08-25T20:02:15.313Z,90.80
2022-08-25T20:04:49.994Z,90.90
2022-08-25T20:07:23.662Z,91.10
2022-08-25T20:09:52.595Z,91.30
2022-08-25T20:12:20.571Z,91.60
2022-08-25T20:14:48.738Z,91.80
2022-08-25T20:17:24.252Z,92.00
2022-08-25T20:19:58.632Z,92.10
2022-08-25T20:22:32.012Z,92.30
2022-08-25T20:25:13.079Z,92.50
2022-08-25T20:27:47.415Z,92.70
2022-08-25T20:30:24.072Z,92.80
2022-08-25T20:32:52.749Z,93.10
2022-08-25T20:35:21.464Z,93.10
2022-08-25T20:37:55.114Z,93.30
2022-08-25T20:40:25.553Z,93.50
2022-08-25T20:42:55.734Z,93.70
2022-08-25T20:45:23.465Z,93.70
2022-08-25T20:47:50.457Z,93.70
2022-08-25T20:50:24.172Z,93.70
2022-08-25T20:52:54.123Z,94.10
2022-08-25T20:55:22.242Z,94.20
2022-08-25T20:57:49.450Z,94.20
2022-08-25T21:00:19.389Z,94.30
2022-08-25T21:02:51.024Z,94.30
2022-08-25T21:05:18.550Z,94.60
2022-08-25T21:07:45.638Z,95.00
2022-08-25T21:10:14.072Z,95.00
2022-08-25T21:12:42.815Z,94.90
2022-08-25T21:15:11.441Z,95.00
2022-08-25T21:17:40.194Z,95.30
2022-08-25T21:20:08.801Z,95.60
2022-08-25T21:22:37.876Z,95.80
2022-08-25T21:25:05.768Z,96.20
2022-08-25T21:27:33.598Z,96.60
2022-08-25T21:30:00.732Z,97.10
2022-08-25T21:32:27.602Z,97.70
2022-08-25T21:34:56.262Z,98.10
2022-08-25T21:37:24.398Z,98.60
2022-08-25T21:39:52.117Z,99.00
2022-08-25T21:42:20.968Z,99.30
2022-08-25T21:44:49.458Z,99.90
2022-08-25T21:47:21.065Z,99.90
2022-08-25T21:49:48.715Z,99.90
2022-08-25T21:52:16.274Z,99.90
2022-08-25T21:54:44.821Z,99.90
2022-08-25T21:57:17.632Z,99.90
2022-08-25T21:59:46.199Z,99.90
2022-08-25T22:02:14.029Z,99.90
2022-08-25T22:04:43.554Z,99.90
2022-08-25T22:07:11.116Z,99.90
2022-08-25T22:09:41.166Z,99.90
2022-08-25T22:12:08.829Z,99.90
2022-08-25T22:14:39.132Z,99.90
2022-08-25T22:17:10.023Z,99.90
2022-08-25T22:19:40.968Z,99.90
2022-08-25T22:22:07.907Z,99.90
2022-08-25T22:24:37.409Z,99.90
2022-08-25T22:27:15.440Z,99.90
2022-08-25T22:29:44.120Z,99.90
2022-08-25T22:32:13.643Z,99.90
2022-08-25T22:34:41.083Z,99.90
2022-08-25T22:37:10.939Z,99.90
2022-08-25T22:39:40.355Z,99.90
2022-08-25T22:42:08.807Z,99.90
2022-08-25T22:44:43.745Z,99.90
2022-08-25T22:47:11.845Z,99.90
2022-08-25T22:49:40.203Z,99.90
2022-08-25T22:52:09.442Z,99.90
2022-08-25T22:54:41.093Z,99.90
2022-08-25T22:57:07.994Z,99.90
2022-08-25T22:59:34.957Z,99.90
2022-08-25T23:02:02.259Z,99.90
2022-08-25T23:04:29.213Z,99.90
2022-08-25T23:06:56.293Z,99.90
2022-08-25T23:09:24.863Z,99.90
2022-08-25T23:11:52.401Z,99.90
2022-08-25T23:14:20.357Z,99.90
2022-08-25T23:16:50.019Z,99.90
2022-08-25T23:19:18.094Z,99.90
2022-08-25T23:22:04.478Z,99.90
2022-08-25T23:24:31.979Z,99.90
2022-08-25T23:27:00.924Z,99.90
2022-08-25T23:29:29.608Z,99.90
2022-08-25T23:31:56.994Z,99.90
2022-08-25T23:34:24.896Z,99.90
2022-08-25T23:36:52.386Z,99.90
2022-08-25T23:39:21.623Z,99.90
2022-08-25T23:41:49.653Z,99.90
2022-08-25T23:44:18.597Z,99.90
2022-08-25T23:46:49.652Z,99.90
2022-08-25T23:49:18.961Z,99.90
2022-08-25T23:51:52.642Z,99.90
2022-08-25T23:54:31.155Z,99.90
2022-08-25T23:57:01.656Z,99.90
2022-08-25T23:59:29.075Z,99.90
